First Ferry Vi — VRS4293 — position and weather

sailwx.info

Track history (hours):
 
Tides and Currents Weather Stations Pressure Air Temp Water Temp Dewpoint Dewpoint Depression Visibility Wind Speed Wind Dir Waves Ship Positions

First Ferry Vi

Last reported at 2015-Apr-18 08:33 UTC. Time now 2015-Apr-18 08:48 UTC.
Position N 22°18' E 114°09'.

Length 36 m; draft 1.8 m.

Type: Ship. MMSI: 477995028.

Date/timePositionNaut miles runAvg speedWind from/ knotsBaromVisibWave heightAir tempDewpointWater temp
2015-Apr-18 08:33N 22°18' E 114°09'6 6.1
2015-Apr-18 07:32N 22°16' E 114°02'7 1.7
2015-Apr-18 03:32N 22°17' E 114°10'5 3.8
2015-Apr-18 02:07N 22°15' E 114°04'610.6
2015-Apr-18 01:34N 22°17' E 114°10'1 0.4
2015-Apr-17 23:33N 22°17' E 114°09'0 0.0
2015-Apr-17 16:33N 22°17' E 114°10'5 3.4
2015-Apr-17 15:03N 22°17' E 114°04'5 9.9
2015-Apr-17 14:33N 22°17' E 114°10'3 3.0
2015-Apr-17 13:33N 22°17' E 114°06'3 1.6
2015-Apr-17 11:24N 22°16' E 114°03'5 6.4
2015-Apr-17 10:34N 22°18' E 114°08'6 5.6
2015-Apr-17 09:33N 22°16' E 114°03'6 5.7
2015-Apr-17 08:34N 22°18' E 114°08'6 6.3
2015-Apr-17 07:33N 22°16' E 114°02'1010.0
2015-Apr-17 06:33N 22°19' E 114°12'0 0.3
2015-Apr-17 05:33N 22°19' E 114°12'0 0.2
2015-Apr-17 04:33N 22°19' E 114°12'0 0.0
2015-Apr-17 03:33N 22°19' E 114°12'0 0.0
2015-Apr-17 02:33N 22°19' E 114°12'3 2.7
2015-Apr-17 01:32N 22°20' E 114°09'3 1.3
2015-Apr-16 23:33N 22°17' E 114°10'0 0.0
2015-Apr-16 16:33N 22°17' E 114°10'7 5.0
2015-Apr-16 15:08N 22°16' E 114°02'712.6
2015-Apr-16 14:33N 22°17' E 114°10'3 3.5
2015-Apr-16 13:33N 22°17' E 114°06'3 1.5
2015-Apr-16 11:24N 22°16' E 114°03'6 6.9
2015-Apr-16 10:33N 22°18' E 114°09'6 6.2
2015-Apr-16 09:32N 22°16' E 114°02'6 5.9
2015-Apr-16 08:33N 22°18' E 114°08'6 5.8
2015-Apr-16 07:32N 22°16' E 114°02'7 6.9
2015-Apr-16 06:30N 22°20' E 114°09'0 0.0
2015-Apr-16 04:33N 22°20' E 114°09'0 0.0
2015-Apr-16 01:32N 22°20' E 114°09'3 1.3
2015-Apr-15 23:33N 22°17' E 114°10'0 0.0
2015-Apr-15 16:34N 22°17' E 114°09'7 5.2
2015-Apr-15 15:09N 22°16' E 114°02'712.5
2015-Apr-15 14:33N 22°17' E 114°10'3 3.0
2015-Apr-15 13:33N 22°17' E 114°06'4 2.0
2015-Apr-15 11:26N 22°16' E 114°02'7 7.5
2015-Apr-15 10:34N 22°18' E 114°09'6 6.0
2015-Apr-15 09:33N 22°16' E 114°03'6 5.8
2015-Apr-15 08:34N 22°18' E 114°09'4 3.7
2015-Apr-15 07:28N 22°17' E 114°04'7 8.0
2015-Apr-15 06:33N 22°18' E 114°12'1 0.6
2015-Apr-15 05:33N 22°19' E 114°12'0 0.2
2015-Apr-15 04:33N 22°19' E 114°12'0 0.0
2015-Apr-15 03:34N 22°19' E 114°12'0 0.0
2015-Apr-15 02:33N 22°19' E 114°12'3 2.7
2015-Apr-15 01:33N 22°20' E 114°09'2 1.2
2015-Apr-14 23:33N 22°17' E 114°10'0 0.0
2015-Apr-14 16:34N 22°17' E 114°10'6 4.3
2015-Apr-14 15:05N 22°16' E 114°03'611.8
2015-Apr-14 14:33N 22°17' E 114°10'3 3.3
2015-Apr-14 13:33N 22°17' E 114°06'4 1.7
2015-Apr-14 11:26N 22°16' E 114°02'6 7.0
2015-Apr-14 10:34N 22°18' E 114°09'2 1.8
2015-Apr-14 09:23N 22°17' E 114°06'5 6.2
2015-Apr-14 08:33N 22°19' E 114°12'0 0.2
2015-Apr-14 07:33N 22°19' E 114°12'0 0.0
2015-Apr-14 06:33N 22°19' E 114°12'0 0.0
2015-Apr-14 05:33N 22°19' E 114°12'0 0.0
2015-Apr-14 04:33N 22°19' E 114°12'1 1.0
2015-Apr-14 03:33N 22°18' E 114°12'2 1.0
2015-Apr-14 01:34N 22°17' E 114°10'4 3.2
2015-Apr-14 00:16N 22°16' E 114°05'4 5.8
2015-Apr-13 23:33N 22°17' E 114°10'0 0.0
2015-Apr-13 16:33N 22°17' E 114°10'8 5.6
2015-Apr-13 15:10N 22°16' E 114°01'813.0
2015-Apr-13 14:34N 22°17' E 114°10'3 3.3
2015-Apr-13 13:33N 22°17' E 114°06'4 2.0
2015-Apr-13 11:27N 22°16' E 114°02'7 7.3
2015-Apr-13 10:34N 22°18' E 114°09'6 5.6
2015-Apr-13 09:32N 22°16' E 114°03'6 5.8
2015-Apr-13 08:33N 22°18' E 114°09'3 3.1
2015-Apr-13 07:27N 22°17' E 114°05'7 7.3
2015-Apr-13 06:34N 22°19' E 114°12'0 0.1
2015-Apr-13 05:33N 22°19' E 114°12'0 0.0
2015-Apr-13 04:33N 22°19' E 114°12'0 0.0
2015-Apr-13 03:33N 22°19' E 114°12'0 0.0
2015-Apr-13 02:34N 22°19' E 114°12'3 2.8
2015-Apr-13 01:31N 22°20' E 114°09'3 1.3
2015-Apr-12 23:33N 22°17' E 114°10'0 0.0
2015-Apr-12 16:33N 22°17' E 114°09'3 1.4
2015-Apr-12 14:33N 22°17' E 114°06'2 1.8
2015-Apr-12 13:33N 22°17' E 114°05'1 1.5
2015-Apr-12 12:34N 22°17' E 114°06'1 0.4
2015-Apr-12 10:33N 22°17' E 114°07'1 0.4
2015-Apr-12 08:33N 22°17' E 114°06'0 0.1
2015-Apr-12 06:33N 22°17' E 114°06'3 0.9
2015-Apr-12 03:26N 22°15' E 114°04'6 6.8
2015-Apr-12 02:33N 22°20' E 114°09'0 0.0
2015-Apr-12 01:33N 22°20' E 114°09'2 2.2
2015-Apr-12 00:34N 22°18' E 114°09'6 4.7
2015-Apr-11 23:20N 22°15' E 114°04'2 2.4
2015-Apr-11 22:34N 22°17' E 114°04'5 0.7
2015-Apr-11 15:33N 22°17' E 114°10'7 5.5
2015-Apr-11 14:22N 22°16' E 114°03'4 5.0
2015-Apr-11 13:34N 22°17' E 114°07'3 1.3
2015-Apr-11 11:33N 22°17' E 114°10'7 6.3
2015-Apr-11 10:24N 22°16' E 114°02'8 9.2
2015-Apr-11 09:33N 22°17' E 114°10'8 5.6
2015-Apr-11 08:12N 22°16' E 114°02'711.0
2015-Apr-11 07:33N 22°17' E 114°10'7 5.6
2015-Apr-11 06:14N 22°16' E 114°02'710.9
2015-Apr-11 05:33N 22°17' E 114°10'2 2.5
2015-Apr-11 04:33N 22°19' E 114°12'1 1.1
2015-Apr-11 03:33N 22°18' E 114°12'8 5.8
2015-Apr-11 02:09N 22°15' E 114°03'711.4
2015-Apr-11 01:33N 22°17' E 114°10'2 2.3
2015-Apr-11 00:34N 22°19' E 114°09'7 5.9
2015-Apr-10 23:21N 22°15' E 114°03'2 2.5
2015-Apr-10 22:32N 22°17' E 114°04'5 0.7
2015-Apr-10 15:34N 22°17' E 114°10'7 5.7
2015-Apr-10 14:22N 22°16' E 114°02'7 8.4
2015-Apr-10 13:33N 22°17' E 114°10'0 0.2
2015-Apr-10 12:34N 22°17' E 114°10'5 4.9
2015-Apr-10 11:33N 22°16' E 114°05'1 0.6
2015-Apr-10 10:20N 22°17' E 114°04'5 6.4
2015-Apr-10 09:33N 22°19' E 114°09'1 1.0
2015-Apr-10 08:33N 22°20' E 114°09'0 0.0
2015-Apr-10 07:33N 22°20' E 114°09'0 0.0
2015-Apr-10 06:33N 22°20' E 114°09'1 1.3
2015-Apr-10 05:33N 22°18' E 114°09'5 3.5
2015-Apr-10 04:04N 22°16' E 114°04'510.1
2015-Apr-10 03:33N 22°17' E 114°10'0 0.1
2015-Apr-10 01:33N 22°17' E 114°10'2 2.1
2015-Apr-10 00:33N 22°19' E 114°09'7 5.6
2015-Apr-09 23:21N 22°15' E 114°03'2 2.0
2015-Apr-09 22:28N 22°16' E 114°02'1 0.2
2015-Apr-09 17:33N 22°15' E 114°02'0 0.0
2015-Apr-09 16:24N 22°15' E 114°02'7 8.8
2015-Apr-09 15:33N 22°17' E 114°10'7 6.3
2015-Apr-09 14:23N 22°16' E 114°02'911.3
2015-Apr-09 13:33N 22°18' E 114°12'2 2.1
2015-Apr-09 12:33N 22°17' E 114°10'5 4.9
2015-Apr-09 11:33N 22°16' E 114°05'7 7.3
2015-Apr-09 10:33N 22°19' E 114°12'0 0.0
2015-Apr-09 09:33N 22°19' E 114°12'0 0.0
2015-Apr-09 08:33N 22°19' E 114°12'1 0.7
2015-Apr-09 07:33N 22°18' E 114°12'2 1.0
2015-Apr-09 05:26N 22°17' E 114°10'0 0.0
2015-Apr-09 03:33N 22°17' E 114°10'0 0.2
2015-Apr-09 01:33N 22°17' E 114°10'2 1.8
2015-Apr-09 00:33N 22°19' E 114°09'6 4.9
2015-Apr-08 23:19N 22°15' E 114°04'1 1.7
2015-Apr-08 22:33N 22°17' E 114°04'5 0.7
2015-Apr-08 15:34N 22°17' E 114°10'8 6.6
2015-Apr-08 14:25N 22°16' E 114°02'8 8.8
2015-Apr-08 13:33N 22°17' E 114°10'0 0.3
2015-Apr-08 12:34N 22°17' E 114°09'4 4.4
2015-Apr-08 11:33N 22°16' E 114°05'3 2.7
2015-Apr-08 10:25N 22°16' E 114°02'8 9.0
2015-Apr-08 09:33N 22°17' E 114°10'  
Track history (hours):
 
Tides and Currents Weather Stations Pressure Air Temp Water Temp Dewpoint Dewpoint Depression Visibility Wind Speed Wind Dir Waves Ship Positions

First Ferry Vi

Last reported at 2015-Apr-18 08:33 UTC. Time now 2015-Apr-18 08:48 UTC.
Position N 22°18' E 114°09'.

Length 36 m; draft 1.8 m.

Type: Ship. MMSI: 477995028.

Date/timePositionNaut miles runAvg speedWind from/ knotsBaromVisibWave heightAir tempDewpointWater temp
2015-Apr-18 08:33N 22°18' E 114°09'6 6.1
2015-Apr-18 07:32N 22°16' E 114°02'7 1.7
2015-Apr-18 03:32N 22°17' E 114°10'5 3.8
2015-Apr-18 02:07N 22°15' E 114°04'610.6
2015-Apr-18 01:34N 22°17' E 114°10'1 0.4
2015-Apr-17 23:33N 22°17' E 114°09'0 0.0
2015-Apr-17 16:33N 22°17' E 114°10'5 3.4
2015-Apr-17 15:03N 22°17' E 114°04'5 9.9
2015-Apr-17 14:33N 22°17' E 114°10'3 3.0
2015-Apr-17 13:33N 22°17' E 114°06'3 1.6
2015-Apr-17 11:24N 22°16' E 114°03'5 6.4
2015-Apr-17 10:34N 22°18' E 114°08'6 5.6
2015-Apr-17 09:33N 22°16' E 114°03'6 5.7
2015-Apr-17 08:34N 22°18' E 114°08'6 6.3
2015-Apr-17 07:33N 22°16' E 114°02'1010.0
2015-Apr-17 06:33N 22°19' E 114°12'0 0.3
2015-Apr-17 05:33N 22°19' E 114°12'0 0.2
2015-Apr-17 04:33N 22°19' E 114°12'0 0.0
2015-Apr-17 03:33N 22°19' E 114°12'0 0.0
2015-Apr-17 02:33N 22°19' E 114°12'3 2.7
2015-Apr-17 01:32N 22°20' E 114°09'3 1.3
2015-Apr-16 23:33N 22°17' E 114°10'0 0.0
2015-Apr-16 16:33N 22°17' E 114°10'7 5.0
2015-Apr-16 15:08N 22°16' E 114°02'712.6
2015-Apr-16 14:33N 22°17' E 114°10'3 3.5
2015-Apr-16 13:33N 22°17' E 114°06'3 1.5
2015-Apr-16 11:24N 22°16' E 114°03'6 6.9
2015-Apr-16 10:33N 22°18' E 114°09'6 6.2
2015-Apr-16 09:32N 22°16' E 114°02'6 5.9
2015-Apr-16 08:33N 22°18' E 114°08'6 5.8
2015-Apr-16 07:32N 22°16' E 114°02'7 6.9
2015-Apr-16 06:30N 22°20' E 114°09'0 0.0
2015-Apr-16 04:33N 22°20' E 114°09'0 0.0
2015-Apr-16 01:32N 22°20' E 114°09'3 1.3
2015-Apr-15 23:33N 22°17' E 114°10'0 0.0
2015-Apr-15 16:34N 22°17' E 114°09'7 5.2
2015-Apr-15 15:09N 22°16' E 114°02'712.5
2015-Apr-15 14:33N 22°17' E 114°10'3 3.0
2015-Apr-15 13:33N 22°17' E 114°06'4 2.0
2015-Apr-15 11:26N 22°16' E 114°02'7 7.5
2015-Apr-15 10:34N 22°18' E 114°09'6 6.0
2015-Apr-15 09:33N 22°16' E 114°03'6 5.8
2015-Apr-15 08:34N 22°18' E 114°09'4 3.7
2015-Apr-15 07:28N 22°17' E 114°04'7 8.0
2015-Apr-15 06:33N 22°18' E 114°12'1 0.6
2015-Apr-15 05:33N 22°19' E 114°12'0 0.2
2015-Apr-15 04:33N 22°19' E 114°12'0 0.0
2015-Apr-15 03:34N 22°19' E 114°12'0 0.0
2015-Apr-15 02:33N 22°19' E 114°12'3 2.7
2015-Apr-15 01:33N 22°20' E 114°09'2 1.2
2015-Apr-14 23:33N 22°17' E 114°10'0 0.0
2015-Apr-14 16:34N 22°17' E 114°10'6 4.3
2015-Apr-14 15:05N 22°16' E 114°03'611.8
2015-Apr-14 14:33N 22°17' E 114°10'3 3.3
2015-Apr-14 13:33N 22°17' E 114°06'4 1.7
2015-Apr-14 11:26N 22°16' E 114°02'6 7.0
2015-Apr-14 10:34N 22°18' E 114°09'2 1.8
2015-Apr-14 09:23N 22°17' E 114°06'5 6.2
2015-Apr-14 08:33N 22°19' E 114°12'0 0.2
2015-Apr-14 07:33N 22°19' E 114°12'0 0.0
2015-Apr-14 06:33N 22°19' E 114°12'0 0.0
2015-Apr-14 05:33N 22°19' E 114°12'0 0.0
2015-Apr-14 04:33N 22°19' E 114°12'1 1.0
2015-Apr-14 03:33N 22°18' E 114°12'2 1.0
2015-Apr-14 01:34N 22°17' E 114°10'4 3.2
2015-Apr-14 00:16N 22°16' E 114°05'4 5.8
2015-Apr-13 23:33N 22°17' E 114°10'0 0.0
2015-Apr-13 16:33N 22°17' E 114°10'8 5.6
2015-Apr-13 15:10N 22°16' E 114°01'813.0
2015-Apr-13 14:34N 22°17' E 114°10'3 3.3
2015-Apr-13 13:33N 22°17' E 114°06'4 2.0
2015-Apr-13 11:27N 22°16' E 114°02'7 7.3
2015-Apr-13 10:34N 22°18' E 114°09'6 5.6
2015-Apr-13 09:32N 22°16' E 114°03'6 5.8
2015-Apr-13 08:33N 22°18' E 114°09'3 3.1
2015-Apr-13 07:27N 22°17' E 114°05'7 7.3
2015-Apr-13 06:34N 22°19' E 114°12'0 0.1
2015-Apr-13 05:33N 22°19' E 114°12'0 0.0
2015-Apr-13 04:33N 22°19' E 114°12'0 0.0
2015-Apr-13 03:33N 22°19' E 114°12'0 0.0
2015-Apr-13 02:34N 22°19' E 114°12'3 2.8
2015-Apr-13 01:31N 22°20' E 114°09'3 1.3
2015-Apr-12 23:33N 22°17' E 114°10'0 0.0
2015-Apr-12 16:33N 22°17' E 114°09'3 1.4
2015-Apr-12 14:33N 22°17' E 114°06'2 1.8
2015-Apr-12 13:33N 22°17' E 114°05'1 1.5
2015-Apr-12 12:34N 22°17' E 114°06'1 0.4
2015-Apr-12 10:33N 22°17' E 114°07'1 0.4
2015-Apr-12 08:33N 22°17' E 114°06'0 0.1
2015-Apr-12 06:33N 22°17' E 114°06'3 0.9
2015-Apr-12 03:26N 22°15' E 114°04'6 6.8
2015-Apr-12 02:33N 22°20' E 114°09'0 0.0
2015-Apr-12 01:33N 22°20' E 114°09'2 2.2
2015-Apr-12 00:34N 22°18' E 114°09'6 4.7
2015-Apr-11 23:20N 22°15' E 114°04'2 2.4
2015-Apr-11 22:34N 22°17' E 114°04'5 0.7
2015-Apr-11 15:33N 22°17' E 114°10'7 5.5
2015-Apr-11 14:22N 22°16' E 114°03'4 5.0
2015-Apr-11 13:34N 22°17' E 114°07'3 1.3
2015-Apr-11 11:33N 22°17' E 114°10'7 6.3
2015-Apr-11 10:24N 22°16' E 114°02'8 9.2
2015-Apr-11 09:33N 22°17' E 114°10'8 5.6
2015-Apr-11 08:12N 22°16' E 114°02'711.0
2015-Apr-11 07:33N 22°17' E 114°10'7 5.6
2015-Apr-11 06:14N 22°16' E 114°02'710.9
2015-Apr-11 05:33N 22°17' E 114°10'2 2.5
2015-Apr-11 04:33N 22°19' E 114°12'1 1.1
2015-Apr-11 03:33N 22°18' E 114°12'8 5.8
2015-Apr-11 02:09N 22°15' E 114°03'711.4
2015-Apr-11 01:33N 22°17' E 114°10'2 2.3
2015-Apr-11 00:34N 22°19' E 114°09'7 5.9
2015-Apr-10 23:21N 22°15' E 114°03'2 2.5
2015-Apr-10 22:32N 22°17' E 114°04'5 0.7
2015-Apr-10 15:34N 22°17' E 114°10'7 5.7
2015-Apr-10 14:22N 22°16' E 114°02'7 8.4
2015-Apr-10 13:33N 22°17' E 114°10'0 0.2
2015-Apr-10 12:34N 22°17' E 114°10'5 4.9
2015-Apr-10 11:33N 22°16' E 114°05'1 0.6
2015-Apr-10 10:20N 22°17' E 114°04'5 6.4
2015-Apr-10 09:33N 22°19' E 114°09'1 1.0
2015-Apr-10 08:33N 22°20' E 114°09'0 0.0
2015-Apr-10 07:33N 22°20' E 114°09'0 0.0
2015-Apr-10 06:33N 22°20' E 114°09'1 1.3
2015-Apr-10 05:33N 22°18' E 114°09'5 3.5
2015-Apr-10 04:04N 22°16' E 114°04'510.1
2015-Apr-10 03:33N 22°17' E 114°10'0 0.1
2015-Apr-10 01:33N 22°17' E 114°10'2 2.1
2015-Apr-10 00:33N 22°19' E 114°09'7 5.6
2015-Apr-09 23:21N 22°15' E 114°03'2 2.0
2015-Apr-09 22:28N 22°16' E 114°02'1 0.2
2015-Apr-09 17:33N 22°15' E 114°02'0 0.0
2015-Apr-09 16:24N 22°15' E 114°02'7 8.8
2015-Apr-09 15:33N 22°17' E 114°10'7 6.3
2015-Apr-09 14:23N 22°16' E 114°02'911.3
2015-Apr-09 13:33N 22°18' E 114°12'2 2.1
2015-Apr-09 12:33N 22°17' E 114°10'5 4.9
2015-Apr-09 11:33N 22°16' E 114°05'7 7.3
2015-Apr-09 10:33N 22°19' E 114°12'0 0.0
2015-Apr-09 09:33N 22°19' E 114°12'0 0.0
2015-Apr-09 08:33N 22°19' E 114°12'1 0.7
2015-Apr-09 07:33N 22°18' E 114°12'2 1.0
2015-Apr-09 05:26N 22°17' E 114°10'0 0.0
2015-Apr-09 03:33N 22°17' E 114°10'0 0.2
2015-Apr-09 01:33N 22°17' E 114°10'2 1.8
2015-Apr-09 00:33N 22°19' E 114°09'6 4.9
2015-Apr-08 23:19N 22°15' E 114°04'1 1.7
2015-Apr-08 22:33N 22°17' E 114°04'5 0.7
2015-Apr-08 15:34N 22°17' E 114°10'8 6.6
2015-Apr-08 14:25N 22°16' E 114°02'8 8.8
2015-Apr-08 13:33N 22°17' E 114°10'0 0.3
2015-Apr-08 12:34N 22°17' E 114°09'4 4.4
2015-Apr-08 11:33N 22°16' E 114°05'3 2.7
2015-Apr-08 10:25N 22°16' E 114°02'8 9.0
2015-Apr-08 09:33N 22°17' E 114°10'  

Dump ship's entire track history